To NAV CANADA Home Page Login to a new session Search on AWWS site Feedback and Comments Disclaimer Vers la page française équivalente Tips FAQ What's new on the site To the Forecasts and Observations / NOTAM section To "File a Flight Plan" website Publications and other links Update of the User's profile FIC Telephone Numbers My Weather Data Folder Route Weather Data Regional Weather Data Local Weather Data To the Forecasts and Observations / NOTAM section
Request Generated 05/02/2016 at 03:34:50 UTC . Weather information available at that time is displayed.

METAR/TAF

MONTREAL/MONTREAL INTL (MIRABEL)/QC    

SPECI CYMX 020318Z 05003KT 020V090 2SM -RA BR OVC004 07/06 A3008 RMK
SF8 SLP188=
METAR CYMX 020300Z 04005KT 040V120 6SM -RA BR OVC004 06/06 A3008 RMK
SF8 SLP190=
METAR CYMX 020200Z VRB03KT 10SM BKN004 OVC015 06/06 A3009 RMK SF5SC3
CIG RAG SLP195=
METAR CYMX 020100Z 04006KT 330V080 8SM -RA SCT008 OVC015 06/06 A3010
RMK SF4SC4 SLP196=

TAF AMD CYMX 020306Z 0203/0224 05006KT 6SM BR OVC005 TEMPO 0203/0213
3SM -DZ -RA BR OVC003
FM021300 07012KT 3SM BR OVC006
FM021600 06012G22KT 6SM BR SCT008 OVC012
FM021900 06012G22KT P6SM -SHRA OVC020
FM022200 04010KT P6SM OVC015
RMK NXT FCST BY 020600Z=
Your time UTC time
Weather data provided by Environment Canada and NAV CANADA